sensor_id;sensor_type;location;lat;lon;timestamp;temperature;humidity
53264;DHT22;39153;52.680;6.172;2023-06-04T00:00:43;13.90;94.50
53264;DHT22;39153;52.680;6.172;2023-06-04T00:03:09;13.90;94.40
53264;DHT22;39153;52.680;6.172;2023-06-04T00:05:35;13.80;94.50
53264;DHT22;39153;52.680;6.172;2023-06-04T00:08:00;13.80;94.60
53264;DHT22;39153;52.680;6.172;2023-06-04T00:10:26;13.80;94.70
53264;DHT22;39153;52.680;6.172;2023-06-04T00:12:52;13.80;94.80
53264;DHT22;39153;52.680;6.172;2023-06-04T00:15:17;13.80;95.10
53264;DHT22;39153;52.680;6.172;2023-06-04T00:17:43;13.70;94.90
53264;DHT22;39153;52.680;6.172;2023-06-04T00:20:10;13.70;95.10
53264;DHT22;39153;52.680;6.172;2023-06-04T00:22:36;13.70;95.20
53264;DHT22;39153;52.680;6.172;2023-06-04T00:25:02;13.60;95.20
53264;DHT22;39153;52.680;6.172;2023-06-04T00:27:28;13.60;95.30
53264;DHT22;39153;52.680;6.172;2023-06-04T00:29:54;13.60;95.50
53264;DHT22;39153;52.680;6.172;2023-06-04T00:32:20;13.50;95.60
53264;DHT22;39153;52.680;6.172;2023-06-04T00:34:55;13.40;95.70
53264;DHT22;39153;52.680;6.172;2023-06-04T00:37:24;13.40;95.90
53264;DHT22;39153;52.680;6.172;2023-06-04T00:39:50;13.30;96.20
53264;DHT22;39153;52.680;6.172;2023-06-04T00:42:16;13.30;96.10
53264;DHT22;39153;52.680;6.172;2023-06-04T00:44:42;13.20;96.00
53264;DHT22;39153;52.680;6.172;2023-06-04T00:47:16;13.10;96.40
53264;DHT22;39153;52.680;6.172;2023-06-04T00:49:43;13.10;96.50
53264;DHT22;39153;52.680;6.172;2023-06-04T00:52:09;13.00;96.60
53264;DHT22;39153;52.680;6.172;2023-06-04T00:54:36;13.00;96.80
53264;DHT22;39153;52.680;6.172;2023-06-04T00:57:02;13.00;96.90
53264;DHT22;39153;52.680;6.172;2023-06-04T00:59:30;12.90;97.00
53264;DHT22;39153;52.680;6.172;2023-06-04T01:02:03;12.90;97.30
53264;DHT22;39153;52.680;6.172;2023-06-04T01:07:22;12.80;97.30
53264;DHT22;39153;52.680;6.172;2023-06-04T01:09:50;12.80;97.60
53264;DHT22;39153;52.680;6.172;2023-06-04T01:12:16;12.80;97.80
53264;DHT22;39153;52.680;6.172;2023-06-04T01:14:42;12.80;97.90
53264;DHT22;39153;52.680;6.172;2023-06-04T01:17:19;12.70;98.00
53264;DHT22;39153;52.680;6.172;2023-06-04T01:20:16;12.70;98.00
53264;DHT22;39153;52.680;6.172;2023-06-04T01:25:39;12.60;98.70
53264;DHT22;39153;52.680;6.172;2023-06-04T01:28:09;12.50;98.60
53264;DHT22;39153;52.680;6.172;2023-06-04T01:30:40;12.50;98.90
53264;DHT22;39153;52.680;6.172;2023-06-04T01:33:11;12.40;99.10
53264;DHT22;39153;52.680;6.172;2023-06-04T01:35:37;12.40;99.30
53264;DHT22;39153;52.680;6.172;2023-06-04T01:38:03;12.40;99.40
53264;DHT22;39153;52.680;6.172;2023-06-04T01:40:29;12.40;99.60
53264;DHT22;39153;52.680;6.172;2023-06-04T01:42:56;12.30;99.60
53264;DHT22;39153;52.680;6.172;2023-06-04T01:45:23;12.30;99.90
53264;DHT22;39153;52.680;6.172;2023-06-04T01:47:49;12.30;99.90
53264;DHT22;39153;52.680;6.172;2023-06-04T01:50:15;12.20;99.90
53264;DHT22;39153;52.680;6.172;2023-06-04T01:52:42;12.20;99.90
53264;DHT22;39153;52.680;6.172;2023-06-04T01:55:10;12.20;99.90
53264;DHT22;39153;52.680;6.172;2023-06-04T01:57:37;12.20;99.90
53264;DHT22;39153;52.680;6.172;2023-06-04T02:00:08;12.10;99.90
53264;DHT22;39153;52.680;6.172;2023-06-04T02:02:36;12.00;99.90
53264;DHT22;39153;52.680;6.172;2023-06-04T02:05:05;11.90;99.90
53264;DHT22;39153;52.680;6.172;2023-06-04T02:07:44;11.90;99.90
53264;DHT22;39153;52.680;6.172;2023-06-04T02:10:18;11.90;99.90
53264;DHT22;39153;52.680;6.172;2023-06-04T02:12:54;11.80;99.90
53264;DHT22;39153;52.680;6.172;2023-06-04T02:15:21;11.70;99.90
53264;DHT22;39153;52.680;6.172;2023-06-04T02:17:48;11.70;99.90
53264;DHT22;39153;52.680;6.172;2023-06-04T02:20:16;11.80;99.90
53264;DHT22;39153;52.680;6.172;2023-06-04T02:22:42;11.80;99.90
53264;DHT22;39153;52.680;6.172;2023-06-04T02:25:08;11.70;99.90
53264;DHT22;39153;52.680;6.172;2023-06-04T02:27:37;11.70;99.90
53264;DHT22;39153;52.680;6.172;2023-06-04T02:30:03;11.70;99.90
53264;DHT22;39153;52.680;6.172;2023-06-04T02:32:30;11.70;99.90
53264;DHT22;39153;52.680;6.172;2023-06-04T02:34:56;11.60;99.90
53264;DHT22;39153;52.680;6.172;2023-06-04T02:37:22;11.60;99.90
53264;DHT22;39153;52.680;6.172;2023-06-04T02:39:48;11.50;99.90
53264;DHT22;39153;52.680;6.172;2023-06-04T02:42:13;11.50;99.90
53264;DHT22;39153;52.680;6.172;2023-06-04T02:44:39;11.60;99.90
53264;DHT22;39153;52.680;6.172;2023-06-04T02:47:05;11.50;99.90
53264;DHT22;39153;52.680;6.172;2023-06-04T02:49:31;11.50;99.90
53264;DHT22;39153;52.680;6.172;2023-06-04T02:51:57;11.50;99.90
53264;DHT22;39153;52.680;6.172;2023-06-04T02:54:22;11.40;99.90
53264;DHT22;39153;52.680;6.172;2023-06-04T02:56:48;11.40;99.90
53264;DHT22;39153;52.680;6.172;2023-06-04T02:59:14;11.40;99.90
53264;DHT22;39153;52.680;6.172;2023-06-04T03:01:40;11.30;99.90
53264;DHT22;39153;52.680;6.172;2023-06-04T03:04:07;11.40;99.90
53264;DHT22;39153;52.680;6.172;2023-06-04T03:06:36;11.30;99.90
53264;DHT22;39153;52.680;6.172;2023-06-04T03:09:05;11.30;99.90
53264;DHT22;39153;52.680;6.172;2023-06-04T03:11:30;11.30;99.90
53264;DHT22;39153;52.680;6.172;2023-06-04T03:13:56;11.30;99.90
53264;DHT22;39153;52.680;6.172;2023-06-04T03:16:22;11.30;99.90
53264;DHT22;39153;52.680;6.172;2023-06-04T03:18:47;11.30;99.90
53264;DHT22;39153;52.680;6.172;2023-06-04T03:21:13;11.20;99.90
53264;DHT22;39153;52.680;6.172;2023-06-04T03:23:40;11.20;99.90
53264;DHT22;39153;52.680;6.172;2023-06-04T03:26:06;11.20;99.90
53264;DHT22;39153;52.680;6.172;2023-06-04T03:28:32;11.20;99.90
53264;DHT22;39153;52.680;6.172;2023-06-04T03:30:58;11.20;99.90
53264;DHT22;39153;52.680;6.172;2023-06-04T03:33:24;11.20;99.90
53264;DHT22;39153;52.680;6.172;2023-06-04T03:35:53;11.20;99.90
53264;DHT22;39153;52.680;6.172;2023-06-04T03:38:19;11.20;99.90
53264;DHT22;39153;52.680;6.172;2023-06-04T03:40:45;11.20;99.90
53264;DHT22;39153;52.680;6.172;2023-06-04T03:43:11;11.20;99.90
53264;DHT22;39153;52.680;6.172;2023-06-04T03:45:37;11.10;99.90
53264;DHT22;39153;52.680;6.172;2023-06-04T03:48:02;11.10;99.90
53264;DHT22;39153;52.680;6.172;2023-06-04T03:50:28;11.10;99.90
53264;DHT22;39153;52.680;6.172;2023-06-04T03:52:54;11.10;99.90
53264;DHT22;39153;52.680;6.172;2023-06-04T03:55:19;11.20;99.90
53264;DHT22;39153;52.680;6.172;2023-06-04T03:57:45;11.10;99.90
53264;DHT22;39153;52.680;6.172;2023-06-04T04:00:11;11.10;99.90
53264;DHT22;39153;52.680;6.172;2023-06-04T04:02:39;11.20;99.90
53264;DHT22;39153;52.680;6.172;2023-06-04T04:05:05;11.10;99.90
53264;DHT22;39153;52.680;6.172;2023-06-04T04:07:31;11.10;99.90
53264;DHT22;39153;52.680;6.172;2023-06-04T04:09:56;11.20;99.90
53264;DHT22;39153;52.680;6.172;2023-06-04T04:12:22;11.20;99.90
53264;DHT22;39153;52.680;6.172;2023-06-04T04:14:48;11.20;99.90
53264;DHT22;39153;52.680;6.172;2023-06-04T04:17:14;11.20;99.90
53264;DHT22;39153;52.680;6.172;2023-06-04T04:19:40;11.20;99.90
53264;DHT22;39153;52.680;6.172;2023-06-04T04:22:05;11.20;99.90
53264;DHT22;39153;52.680;6.172;2023-06-04T04:24:32;11.20;99.90
53264;DHT22;39153;52.680;6.172;2023-06-04T04:27:01;11.20;99.90
53264;DHT22;39153;52.680;6.172;2023-06-04T04:29:29;11.20;99.90
53264;DHT22;39153;52.680;6.172;2023-06-04T04:31:58;11.20;99.90
53264;DHT22;39153;52.680;6.172;2023-06-04T04:34:26;11.20;99.90
53264;DHT22;39153;52.680;6.172;2023-06-04T04:36:52;11.20;99.90
53264;DHT22;39153;52.680;6.172;2023-06-04T04:39:21;11.30;99.90
53264;DHT22;39153;52.680;6.172;2023-06-04T04:41:47;11.30;99.90
53264;DHT22;39153;52.680;6.172;2023-06-04T04:44:13;11.30;99.90
53264;DHT22;39153;52.680;6.172;2023-06-04T04:46:38;11.30;99.90
53264;DHT22;39153;52.680;6.172;2023-06-04T04:49:04;11.40;99.90
53264;DHT22;39153;52.680;6.172;2023-06-04T04:51:30;11.40;99.90
53264;DHT22;39153;52.680;6.172;2023-06-04T04:53:55;11.50;99.90
53264;DHT22;39153;52.680;6.172;2023-06-04T04:56:21;11.50;99.90
53264;DHT22;39153;52.680;6.172;2023-06-04T04:58:49;11.60;99.90
53264;DHT22;39153;52.680;6.172;2023-06-04T05:01:15;11.60;99.90
53264;DHT22;39153;52.680;6.172;2023-06-04T05:03:40;11.70;99.90
53264;DHT22;39153;52.680;6.172;2023-06-04T05:06:06;11.70;99.90
53264;DHT22;39153;52.680;6.172;2023-06-04T05:08:32;11.80;99.90
53264;DHT22;39153;52.680;6.172;2023-06-04T05:10:57;11.70;99.90
53264;DHT22;39153;52.680;6.172;2023-06-04T05:13:23;11.80;99.90
53264;DHT22;39153;52.680;6.172;2023-06-04T05:15:49;11.80;99.90
53264;DHT22;39153;52.680;6.172;2023-06-04T05:18:18;11.90;99.90
53264;DHT22;39153;52.680;6.172;2023-06-04T05:20:46;11.90;99.90
53264;DHT22;39153;52.680;6.172;2023-06-04T05:23:12;12.00;99.90
53264;DHT22;39153;52.680;6.172;2023-06-04T05:25:38;12.10;99.90
53264;DHT22;39153;52.680;6.172;2023-06-04T05:28:04;12.10;99.90
53264;DHT22;39153;52.680;6.172;2023-06-04T05:30:32;12.10;99.90
53264;DHT22;39153;52.680;6.172;2023-06-04T05:32:59;12.10;99.90
53264;DHT22;39153;52.680;6.172;2023-06-04T05:35:25;12.20;99.90
53264;DHT22;39153;52.680;6.172;2023-06-04T05:37:50;12.20;99.90
53264;DHT22;39153;52.680;6.172;2023-06-04T05:40:22;12.30;99.90
53264;DHT22;39153;52.680;6.172;2023-06-04T05:42:48;12.40;99.90
53264;DHT22;39153;52.680;6.172;2023-06-04T05:45:14;12.40;99.90
53264;DHT22;39153;52.680;6.172;2023-06-04T05:47:40;12.40;99.90
53264;DHT22;39153;52.680;6.172;2023-06-04T05:50:06;12.50;99.90
53264;DHT22;39153;52.680;6.172;2023-06-04T05:52:33;12.60;99.90
53264;DHT22;39153;52.680;6.172;2023-06-04T05:55:02;12.60;99.90
53264;DHT22;39153;52.680;6.172;2023-06-04T05:57:28;12.60;99.90
53264;DHT22;39153;52.680;6.172;2023-06-04T05:59:54;12.70;99.90
53264;DHT22;39153;52.680;6.172;2023-06-04T06:02:19;12.70;99.90
53264;DHT22;39153;52.680;6.172;2023-06-04T06:04:45;12.80;99.90
53264;DHT22;39153;52.680;6.172;2023-06-04T06:07:11;12.80;99.90
53264;DHT22;39153;52.680;6.172;2023-06-04T06:09:37;12.90;99.90
53264;DHT22;39153;52.680;6.172;2023-06-04T06:12:03;12.90;99.90
53264;DHT22;39153;52.680;6.172;2023-06-04T06:14:28;13.00;99.90
53264;DHT22;39153;52.680;6.172;2023-06-04T06:16:54;13.00;99.90
53264;DHT22;39153;52.680;6.172;2023-06-04T06:19:20;13.10;99.90
53264;DHT22;39153;52.680;6.172;2023-06-04T06:21:45;13.10;99.90
53264;DHT22;39153;52.680;6.172;2023-06-04T06:24:11;13.20;99.90
53264;DHT22;39153;52.680;6.172;2023-06-04T06:26:37;13.30;99.90
53264;DHT22;39153;52.680;6.172;2023-06-04T06:29:02;13.30;99.90
53264;DHT22;39153;52.680;6.172;2023-06-04T06:31:28;13.40;99.90
53264;DHT22;39153;52.680;6.172;2023-06-04T06:33:54;13.50;99.90
53264;DHT22;39153;52.680;6.172;2023-06-04T06:36:20;13.50;99.90
53264;DHT22;39153;52.680;6.172;2023-06-04T06:38:45;13.50;99.90
53264;DHT22;39153;52.680;6.172;2023-06-04T06:41:11;13.60;99.90
53264;DHT22;39153;52.680;6.172;2023-06-04T06:43:38;13.70;99.90
53264;DHT22;39153;52.680;6.172;2023-06-04T06:46:03;13.70;99.90
53264;DHT22;39153;52.680;6.172;2023-06-04T06:48:29;13.80;99.90
53264;DHT22;39153;52.680;6.172;2023-06-04T06:50:55;13.90;99.90
53264;DHT22;39153;52.680;6.172;2023-06-04T06:53:21;13.90;99.90
53264;DHT22;39153;52.680;6.172;2023-06-04T06:55:47;13.90;99.90
53264;DHT22;39153;52.680;6.172;2023-06-04T06:58:12;14.00;99.90
53264;DHT22;39153;52.680;6.172;2023-06-04T07:00:38;14.10;99.90
53264;DHT22;39153;52.680;6.172;2023-06-04T07:03:04;14.20;99.90
53264;DHT22;39153;52.680;6.172;2023-06-04T07:05:30;14.30;99.90
53264;DHT22;39153;52.680;6.172;2023-06-04T07:07:56;14.30;99.90
53264;DHT22;39153;52.680;6.172;2023-06-04T07:10:23;14.30;99.90
53264;DHT22;39153;52.680;6.172;2023-06-04T07:12:49;14.40;99.90
53264;DHT22;39153;52.680;6.172;2023-06-04T07:15:15;14.50;99.90
53264;DHT22;39153;52.680;6.172;2023-06-04T07:17:41;14.50;99.90
53264;DHT22;39153;52.680;6.172;2023-06-04T07:20:07;14.60;99.90
53264;DHT22;39153;52.680;6.172;2023-06-04T07:22:35;14.70;99.90
53264;DHT22;39153;52.680;6.172;2023-06-04T07:25:01;14.70;99.90
53264;DHT22;39153;52.680;6.172;2023-06-04T07:27:27;14.80;99.90
53264;DHT22;39153;52.680;6.172;2023-06-04T07:29:52;14.80;99.90
53264;DHT22;39153;52.680;6.172;2023-06-04T07:32:18;14.90;99.90
53264;DHT22;39153;52.680;6.172;2023-06-04T07:34:44;15.00;99.90
53264;DHT22;39153;52.680;6.172;2023-06-04T07:37:10;15.10;99.90
53264;DHT22;39153;52.680;6.172;2023-06-04T07:39:36;15.10;99.90
53264;DHT22;39153;52.680;6.172;2023-06-04T07:42:03;15.20;99.90
53264;DHT22;39153;52.680;6.172;2023-06-04T07:44:29;15.20;99.90
53264;DHT22;39153;52.680;6.172;2023-06-04T07:46:55;15.30;99.90
53264;DHT22;39153;52.680;6.172;2023-06-04T07:49:21;15.30;99.90
53264;DHT22;39153;52.680;6.172;2023-06-04T07:51:46;15.40;99.90
53264;DHT22;39153;52.680;6.172;2023-06-04T07:54:13;15.40;99.90
53264;DHT22;39153;52.680;6.172;2023-06-04T07:56:39;15.50;99.90
53264;DHT22;39153;52.680;6.172;2023-06-04T07:59:05;15.60;99.90
53264;DHT22;39153;52.680;6.172;2023-06-04T08:01:31;15.60;99.90
53264;DHT22;39153;52.680;6.172;2023-06-04T08:03:57;15.80;99.90
53264;DHT22;39153;52.680;6.172;2023-06-04T08:06:24;15.80;99.90
53264;DHT22;39153;52.680;6.172;2023-06-04T08:08:52;15.90;99.90
53264;DHT22;39153;52.680;6.172;2023-06-04T08:11:18;16.00;99.90
53264;DHT22;39153;52.680;6.172;2023-06-04T08:13:43;16.00;99.90
53264;DHT22;39153;52.680;6.172;2023-06-04T08:16:10;16.10;99.90
53264;DHT22;39153;52.680;6.172;2023-06-04T08:18:39;16.20;99.90
53264;DHT22;39153;52.680;6.172;2023-06-04T08:21:08;16.20;99.90
53264;DHT22;39153;52.680;6.172;2023-06-04T08:23:34;16.30;99.90
53264;DHT22;39153;52.680;6.172;2023-06-04T08:26:00;16.40;99.90
53264;DHT22;39153;52.680;6.172;2023-06-04T08:28:26;16.50;99.90
53264;DHT22;39153;52.680;6.172;2023-06-04T08:30:52;16.50;99.90
53264;DHT22;39153;52.680;6.172;2023-06-04T08:33:17;16.60;99.90
53264;DHT22;39153;52.680;6.172;2023-06-04T08:35:43;16.70;99.90
53264;DHT22;39153;52.680;6.172;2023-06-04T08:38:09;16.80;99.90
53264;DHT22;39153;52.680;6.172;2023-06-04T08:40:34;16.90;99.90
53264;DHT22;39153;52.680;6.172;2023-06-04T08:43:01;16.90;99.90
53264;DHT22;39153;52.680;6.172;2023-06-04T08:45:26;17.00;99.90
53264;DHT22;39153;52.680;6.172;2023-06-04T08:47:53;17.00;99.90
53264;DHT22;39153;52.680;6.172;2023-06-04T08:50:22;17.10;99.90
53264;DHT22;39153;52.680;6.172;2023-06-04T08:52:57;17.20;99.90
53264;DHT22;39153;52.680;6.172;2023-06-04T08:55:23;17.30;99.90
53264;DHT22;39153;52.680;6.172;2023-06-04T08:57:52;17.30;99.90
53264;DHT22;39153;52.680;6.172;2023-06-04T09:00:19;17.40;99.90
53264;DHT22;39153;52.680;6.172;2023-06-04T09:02:45;17.50;99.90
53264;DHT22;39153;52.680;6.172;2023-06-04T09:05:19;17.70;99.90
53264;DHT22;39153;52.680;6.172;2023-06-04T09:07:46;17.80;99.90
53264;DHT22;39153;52.680;6.172;2023-06-04T09:10:13;18.00;99.90
53264;DHT22;39153;52.680;6.172;2023-06-04T09:12:43;18.20;99.90
53264;DHT22;39153;52.680;6.172;2023-06-04T09:15:11;18.40;99.90
53264;DHT22;39153;52.680;6.172;2023-06-04T09:17:37;18.50;99.90
53264;DHT22;39153;52.680;6.172;2023-06-04T09:20:03;18.70;99.90
53264;DHT22;39153;52.680;6.172;2023-06-04T09:22:36;18.90;99.90
53264;DHT22;39153;52.680;6.172;2023-06-04T09:25:06;19.10;99.60
53264;DHT22;39153;52.680;6.172;2023-06-04T09:27:39;19.20;99.20
53264;DHT22;39153;52.680;6.172;2023-06-04T09:30:06;19.30;98.80
53264;DHT22;39153;52.680;6.172;2023-06-04T09:32:34;19.40;98.50
53264;DHT22;39153;52.680;6.172;2023-06-04T09:35:14;19.50;98.20
53264;DHT22;39153;52.680;6.172;2023-06-04T09:37:52;19.60;97.70
53264;DHT22;39153;52.680;6.172;2023-06-04T09:40:18;19.70;97.40
53264;DHT22;39153;52.680;6.172;2023-06-04T09:42:48;19.70;97.60
53264;DHT22;39153;52.680;6.172;2023-06-04T09:45:32;19.80;97.10
53264;DHT22;39153;52.680;6.172;2023-06-04T09:47:58;19.80;96.80
53264;DHT22;39153;52.680;6.172;2023-06-04T09:50:29;19.90;97.30
53264;DHT22;39153;52.680;6.172;2023-06-04T09:52:55;20.00;97.00
53264;DHT22;39153;52.680;6.172;2023-06-04T09:55:22;20.10;96.70
53264;DHT22;39153;52.680;6.172;2023-06-04T09:57:49;20.30;96.50
53264;DHT22;39153;52.680;6.172;2023-06-04T10:00:22;20.30;96.20
53264;DHT22;39153;52.680;6.172;2023-06-04T10:02:49;20.40;96.00
53264;DHT22;39153;52.680;6.172;2023-06-04T10:05:16;20.40;95.70
53264;DHT22;39153;52.680;6.172;2023-06-04T10:07:46;20.40;95.40
53264;DHT22;39153;52.680;6.172;2023-06-04T10:10:16;20.40;95.30
53264;DHT22;39153;52.680;6.172;2023-06-04T10:12:43;20.50;95.40
53264;DHT22;39153;52.680;6.172;2023-06-04T10:15:13;20.50;95.50
53264;DHT22;39153;52.680;6.172;2023-06-04T10:17:39;20.60;94.70
53264;DHT22;39153;52.680;6.172;2023-06-04T10:20:09;20.50;94.60
53264;DHT22;39153;52.680;6.172;2023-06-04T10:22:37;20.60;94.70
53264;DHT22;39153;52.680;6.172;2023-06-04T10:25:03;20.60;94.60
53264;DHT22;39153;52.680;6.172;2023-06-04T10:27:30;20.70;94.70
53264;DHT22;39153;52.680;6.172;2023-06-04T10:29:57;20.70;94.30
53264;DHT22;39153;52.680;6.172;2023-06-04T10:32:27;20.70;94.30
53264;DHT22;39153;52.680;6.172;2023-06-04T10:34:53;20.80;94.40
53264;DHT22;39153;52.680;6.172;2023-06-04T10:37:26;20.90;94.20
53264;DHT22;39153;52.680;6.172;2023-06-04T10:39:56;21.10;93.80
53264;DHT22;39153;52.680;6.172;2023-06-04T10:42:23;21.20;93.30
53264;DHT22;39153;52.680;6.172;2023-06-04T10:44:51;21.20;93.30
53264;DHT22;39153;52.680;6.172;2023-06-04T10:47:25;21.30;93.30
53264;DHT22;39153;52.680;6.172;2023-06-04T10:49:51;21.30;93.10
53264;DHT22;39153;52.680;6.172;2023-06-04T10:52:18;21.40;93.40
53264;DHT22;39153;52.680;6.172;2023-06-04T10:54:45;21.50;93.10
53264;DHT22;39153;52.680;6.172;2023-06-04T10:57:17;21.60;93.10
53264;DHT22;39153;52.680;6.172;2023-06-04T11:00:00;21.60;93.10
53264;DHT22;39153;52.680;6.172;2023-06-04T11:02:26;21.70;93.20
53264;DHT22;39153;52.680;6.172;2023-06-04T11:05:06;21.80;93.20
53264;DHT22;39153;52.680;6.172;2023-06-04T11:07:44;22.00;93.20
53264;DHT22;39153;52.680;6.172;2023-06-04T11:10:14;22.10;92.90
53264;DHT22;39153;52.680;6.172;2023-06-04T11:12:45;22.10;93.00
53264;DHT22;39153;52.680;6.172;2023-06-04T11:15:12;22.20;92.30
53264;DHT22;39153;52.680;6.172;2023-06-04T11:17:37;22.30;92.60
53264;DHT22;39153;52.680;6.172;2023-06-04T11:20:04;22.30;92.40
53264;DHT22;39153;52.680;6.172;2023-06-04T11:22:32;22.30;92.10
53264;DHT22;39153;52.680;6.172;2023-06-04T11:24:59;22.30;92.10
53264;DHT22;39153;52.680;6.172;2023-06-04T11:27:25;22.30;92.00
53264;DHT22;39153;52.680;6.172;2023-06-04T11:29:51;22.30;92.00
53264;DHT22;39153;52.680;6.172;2023-06-04T11:32:22;22.40;92.10
53264;DHT22;39153;52.680;6.172;2023-06-04T11:34:47;22.60;92.40
53264;DHT22;39153;52.680;6.172;2023-06-04T11:37:13;22.90;92.20
53264;DHT22;39153;52.680;6.172;2023-06-04T11:39:39;23.00;91.80
53264;DHT22;39153;52.680;6.172;2023-06-04T11:42:06;23.10;91.60
53264;DHT22;39153;52.680;6.172;2023-06-04T11:44:33;23.10;91.20
53264;DHT22;39153;52.680;6.172;2023-06-04T11:46:59;23.20;90.90
53264;DHT22;39153;52.680;6.172;2023-06-04T11:49:25;23.10;90.40
53264;DHT22;39153;52.680;6.172;2023-06-04T11:51:52;23.00;91.10
53264;DHT22;39153;52.680;6.172;2023-06-04T11:54:20;23.20;91.40
53264;DHT22;39153;52.680;6.172;2023-06-04T11:56:48;23.40;91.00
53264;DHT22;39153;52.680;6.172;2023-06-04T11:59:16;23.50;90.40
53264;DHT22;39153;52.680;6.172;2023-06-04T12:01:43;23.50;89.90
53264;DHT22;39153;52.680;6.172;2023-06-04T12:04:15;23.50;90.40
53264;DHT22;39153;52.680;6.172;2023-06-04T12:06:52;23.60;90.20
53264;DHT22;39153;52.680;6.172;2023-06-04T12:09:22;23.70;90.10
53264;DHT22;39153;52.680;6.172;2023-06-04T12:11:49;23.90;90.10
53264;DHT22;39153;52.680;6.172;2023-06-04T12:14:18;24.00;89.70
53264;DHT22;39153;52.680;6.172;2023-06-04T12:17:01;24.10;89.20
53264;DHT22;39153;52.680;6.172;2023-06-04T12:19:27;24.20;88.30
53264;DHT22;39153;52.680;6.172;2023-06-04T12:22:04;24.30;88.50
53264;DHT22;39153;52.680;6.172;2023-06-04T12:24:35;24.30;87.60
53264;DHT22;39153;52.680;6.172;2023-06-04T12:27:11;24.40;87.40
53264;DHT22;39153;52.680;6.172;2023-06-04T12:29:37;24.50;87.10
53264;DHT22;39153;52.680;6.172;2023-06-04T12:32:10;24.60;86.80
53264;DHT22;39153;52.680;6.172;2023-06-04T12:34:41;24.60;84.90
53264;DHT22;39153;52.680;6.172;2023-06-04T12:37:07;24.70;85.50
53264;DHT22;39153;52.680;6.172;2023-06-04T12:39:34;24.60;85.80
53264;DHT22;39153;52.680;6.172;2023-06-04T12:42:02;24.60;86.30
53264;DHT22;39153;52.680;6.172;2023-06-04T12:44:28;24.80;86.30
53264;DHT22;39153;52.680;6.172;2023-06-04T12:46:54;25.00;85.80
53264;DHT22;39153;52.680;6.172;2023-06-04T12:49:20;25.20;84.70
53264;DHT22;39153;52.680;6.172;2023-06-04T12:51:46;25.20;84.90
53264;DHT22;39153;52.680;6.172;2023-06-04T12:54:12;25.20;85.20
53264;DHT22;39153;52.680;6.172;2023-06-04T12:56:39;25.40;84.50
53264;DHT22;39153;52.680;6.172;2023-06-04T12:59:05;25.40;83.70
53264;DHT22;39153;52.680;6.172;2023-06-04T13:01:31;25.40;84.20
53264;DHT22;39153;52.680;6.172;2023-06-04T13:03:57;25.40;82.70
53264;DHT22;39153;52.680;6.172;2023-06-04T13:06:22;25.40;81.80
53264;DHT22;39153;52.680;6.172;2023-06-04T13:08:48;25.40;81.60
53264;DHT22;39153;52.680;6.172;2023-06-04T13:11:14;25.40;81.60
53264;DHT22;39153;52.680;6.172;2023-06-04T13:13:39;25.40;81.60
53264;DHT22;39153;52.680;6.172;2023-06-04T13:16:05;25.50;81.40
53264;DHT22;39153;52.680;6.172;2023-06-04T13:18:31;25.60;80.80
53264;DHT22;39153;52.680;6.172;2023-06-04T13:20:57;25.80;81.40
53264;DHT22;39153;52.680;6.172;2023-06-04T13:23:22;26.00;81.20
53264;DHT22;39153;52.680;6.172;2023-06-04T13:25:48;26.00;81.10
53264;DHT22;39153;52.680;6.172;2023-06-04T13:28:14;26.10;81.00
53264;DHT22;39153;52.680;6.172;2023-06-04T13:30:41;26.10;80.70
53264;DHT22;39153;52.680;6.172;2023-06-04T13:33:07;26.10;79.70
53264;DHT22;39153;52.680;6.172;2023-06-04T13:35:32;26.00;79.80
53264;DHT22;39153;52.680;6.172;2023-06-04T13:37:58;26.10;79.70
53264;DHT22;39153;52.680;6.172;2023-06-04T13:40:24;26.10;79.30
53264;DHT22;39153;52.680;6.172;2023-06-04T13:42:50;26.20;79.40
53264;DHT22;39153;52.680;6.172;2023-06-04T13:45:16;26.30;79.10
53264;DHT22;39153;52.680;6.172;2023-06-04T13:47:42;26.40;78.70
53264;DHT22;39153;52.680;6.172;2023-06-04T13:50:08;26.40;78.80
53264;DHT22;39153;52.680;6.172;2023-06-04T13:52:34;26.60;79.10
53264;DHT22;39153;52.680;6.172;2023-06-04T13:55:00;26.80;78.20
53264;DHT22;39153;52.680;6.172;2023-06-04T13:57:27;26.80;78.20
53264;DHT22;39153;52.680;6.172;2023-06-04T13:59:53;26.90;77.40
53264;DHT22;39153;52.680;6.172;2023-06-04T14:02:19;26.90;77.40
53264;DHT22;39153;52.680;6.172;2023-06-04T14:04:44;27.00;76.90
53264;DHT22;39153;52.680;6.172;2023-06-04T14:07:10;27.10;76.70
53264;DHT22;39153;52.680;6.172;2023-06-04T14:09:36;27.40;77.40
53264;DHT22;39153;52.680;6.172;2023-06-04T14:12:03;27.60;77.30
53264;DHT22;39153;52.680;6.172;2023-06-04T14:14:28;27.70;76.60
53264;DHT22;39153;52.680;6.172;2023-06-04T14:17:02;27.80;75.90
53264;DHT22;39153;52.680;6.172;2023-06-04T14:19:28;27.90;75.40
53264;DHT22;39153;52.680;6.172;2023-06-04T14:21:54;27.80;74.30
53264;DHT22;39153;52.680;6.172;2023-06-04T14:24:20;27.70;74.80
53264;DHT22;39153;52.680;6.172;2023-06-04T14:26:45;27.80;75.90
53264;DHT22;39153;52.680;6.172;2023-06-04T14:29:11;27.80;74.90
53264;DHT22;39153;52.680;6.172;2023-06-04T14:31:37;27.90;74.80
53264;DHT22;39153;52.680;6.172;2023-06-04T14:34:03;28.10;75.00
53264;DHT22;39153;52.680;6.172;2023-06-04T14:36:29;28.20;75.00
53264;DHT22;39153;52.680;6.172;2023-06-04T14:38:55;28.20;74.00
53264;DHT22;39153;52.680;6.172;2023-06-04T14:41:20;28.40;74.20
53264;DHT22;39153;52.680;6.172;2023-06-04T14:43:46;28.50;73.80
53264;DHT22;39153;52.680;6.172;2023-06-04T14:46:12;28.70;73.80
53264;DHT22;39153;52.680;6.172;2023-06-04T14:48:37;28.70;72.80
53264;DHT22;39153;52.680;6.172;2023-06-04T14:51:03;28.60;72.90
53264;DHT22;39153;52.680;6.172;2023-06-04T14:53:29;28.50;72.60
53264;DHT22;39153;52.680;6.172;2023-06-04T14:55:55;28.40;72.60
53264;DHT22;39153;52.680;6.172;2023-06-04T14:58:20;28.40;73.10
53264;DHT22;39153;52.680;6.172;2023-06-04T15:00:46;28.50;72.60
53264;DHT22;39153;52.680;6.172;2023-06-04T15:03:12;28.60;72.70
53264;DHT22;39153;52.680;6.172;2023-06-04T15:05:37;28.70;73.00
53264;DHT22;39153;52.680;6.172;2023-06-04T15:08:03;28.80;74.10
53264;DHT22;39153;52.680;6.172;2023-06-04T15:10:30;28.60;74.80
53264;DHT22;39153;52.680;6.172;2023-06-04T15:12:56;28.50;75.50
53264;DHT22;39153;52.680;6.172;2023-06-04T15:15:22;28.30;75.90
53264;DHT22;39153;52.680;6.172;2023-06-04T15:17:49;28.40;74.90
53264;DHT22;39153;52.680;6.172;2023-06-04T15:20:15;28.30;75.10
53264;DHT22;39153;52.680;6.172;2023-06-04T15:22:41;28.40;75.80
53264;DHT22;39153;52.680;6.172;2023-06-04T15:25:07;28.10;74.50
53264;DHT22;39153;52.680;6.172;2023-06-04T15:27:33;28.00;75.50
53264;DHT22;39153;52.680;6.172;2023-06-04T15:29:59;28.00;76.30
53264;DHT22;39153;52.680;6.172;2023-06-04T15:32:25;27.90;76.40
53264;DHT22;39153;52.680;6.172;2023-06-04T15:34:50;27.80;77.10